LEAL/ALC METAR and TAF weather

Enter ICAO airport designator
Station Type Date Time Source
LEAL METAR 2019/12/14 11:00 UTC NOAA

LEAL 141100Z 31019KT 280V340 CAVOK 18/07 Q1017 NOSIG


Station Type Date Time Source
LEAL Decoded METAR 2019/12/14 11:00 UTC NOAA

Alicante / El Altet, Spain (LEAL) 38-17N 000-33W 31M
Dec 14, 2019 - 06:00 AM EST / 2019.12.14 1100 UTC
Wind: from the NW (310 degrees) at 22 MPH (19 KT) (direction variable):0
Visibility: greater than 7 mile(s):0
Temperature: 64 F (18 C)
Dew Point: 44 F (7 C)
Relative Humidity: 48%
Pressure (altimeter): 30.03 in. Hg (1017 hPa)
ob: LEAL 141100Z 31019KT 280V340 CAVOK 18/07 Q1017 NOSIG
cycle: 11

Station Type Date Time Source
LEAL TAF 2019/12/14 12:27 UTC NOAA

TAF TAF LEAL 141100Z 1412/1512 30018KT 9999 FEW040 TX20/1413Z TN10/1506Z
TEMPO 1412/1414 30022G34KT
TEMPO 1417/1419 28008KT
BECMG 1504/1506 28010KT

Example: see airport list